Stonington, CT

1:46 AM EDT on October 31, 2014 (GMT -0400)
Montauk | Change Station
CLOSE
Current Station
Airport
Location: Montauk,
Elevation: 7 ft
Nearby Weather Stations

Elev 7 ft 41.07 °N, 71.92 °W | Updated 52 minutes ago

Clear
Clear
51 °F
Feels Like 51 °F
N
8
Wind Variable Wind from NNW
Gusts 6 mph

Today
High -- | Low -- °F
--% Chance of Precip.
Yesterday
High -- | Low -- °F
Precip. -- in
7:17 AM 5:44 PM
First Quarter, 51% visible
Pressure 30.01 in
Visibility -9999.0 miles
Clouds
Dew Point 39 °F
Humidity 63%
Rainfall 0.00 in
Snow Depth Not available.
UV Not available.
Pollen .80 out of 12
Air Quality Not available.
Flu Activity Not available.
METAR KMTP 310454Z AUTO 34007KT 11/04 A3000 RMK AO1 SLP160 T01060039 401560106

More Conditions Fewer Conditions

Pressure 30.01 in
Visibility -9999.0 miles
Clouds
Dew Point 39 °F
Humidity 63%
Rainfall 0.00 in
Snow Depth Not available.
UV Not available.
Pollen .80 out of 12
Air Quality Not available.
Flu Activity Not available.
METAR KMTP 310454Z AUTO 34007KT 11/04 A3000 RMK AO1 SLP160 T01060039 401560106

More Conditions Fewer Conditions

10-Day Weather Forecast

Almanac

Astronomy

Oct. 31, 2014 Rise Set
Actual Time
Civil Twilight
Nautical Twilight
Astronomical Twilight
Moon
Length of Visible Light
Length of Day
Tomorrow will be .
, % of the Moon is Illuminated

Today's Extremes

State Highs State Lows

Community

WunderPhotos

Upload Photos

1,766,570 photos uploaded!

WunderBlogs® & News

Nearby

Air Quality

  Air Quality AQ Index Pollutant
Not available.

Snow Depth

Station Depth Elevation

Earthquake Activity

City Distance Mag. Time & Date
Minimum magnitude displayed is 2.5.

Coastal Water Temperatures

Place Temperature

Nearby Weather Stations